Time;durP1;ratioP1;P1;durP2;ratioP2;P2;SDS_P1;SDS_P2;PMS_P1;PMS_P2;Temp;Humidity;BMP_temperature;BMP_pressure;BME280_temperature;BME280_humidity;BME280_pressure;Samples;Min_cycle;Max_cycle;Signal;HPM_P1;HPM_P2
2023/06/10 00:00:31;;;;;;;5.15;2.75;;;;;;;16.02;67.20;101022.69;6042607;28;20363;-67
2023/06/10 00:03:26;;;;;;;6.15;2.22;;;;;;;16.11;67.33;101023.47;6051011;28;20042;-67
2023/06/10 00:06:24;;;;;;;5.87;2.73;;;;;;;15.82;67.55;101016.06;6051821;28;20432;-66
2023/06/10 00:09:21;;;;;;;4.57;2.05;;;;;;;15.77;68.28;101022.94;6051425;28;20145;-67
2023/06/10 00:12:17;;;;;;;6.65;2.13;;;;;;;15.90;68.71;101036.59;6051547;28;20030;-67
2023/06/10 00:15:13;;;;;;;9.10;3.00;;;;;;;16.01;68.63;101030.88;6036071;28;20124;-67
2023/06/10 00:18:09;;;;;;;13.07;2.42;;;;;;;15.63;69.47;101028.97;6043490;28;20044;-67
2023/06/10 00:21:05;;;;;;;6.13;2.55;;;;;;;15.46;70.82;101026.34;6049489;28;20057;-67
2023/06/10 00:24:02;;;;;;;5.20;2.17;;;;;;;15.70;72.83;101029.97;6048483;28;20037;-67
2023/06/10 00:26:58;;;;;;;5.63;2.40;;;;;;;15.73;70.06;101045.69;6038084;28;20030;-66
2023/06/10 00:29:53;;;;;;;4.97;2.33;;;;;;;15.61;71.35;101025.66;6034690;28;20164;-67
2023/06/10 00:32:48;;;;;;;10.87;3.00;;;;;;;15.76;70.31;101027.44;6050908;28;20265;-67
2023/06/10 00:35:44;;;;;;;6.07;2.67;;;;;;;15.55;71.77;101031.66;6050565;28;20427;-67
2023/06/10 00:38:40;;;;;;;6.13;2.90;;;;;;;15.63;72.46;101043.19;6050219;28;20030;-67
2023/06/10 00:41:36;;;;;;;7.50;3.17;;;;;;;15.45;74.54;101021.97;6039531;28;20047;-66
2023/06/10 00:44:31;;;;;;;6.90;3.00;;;;;;;15.21;73.72;101047.91;6043329;28;20037;-66
2023/06/10 00:47:27;;;;;;;11.27;3.47;;;;;;;15.30;74.88;101054.91;6050560;28;20030;-67
2023/06/10 00:50:22;;;;;;;7.13;3.83;;;;;;;15.29;76.03;101054.09;6050133;28;20038;-66
2023/06/10 00:53:18;;;;;;;6.03;3.07;;;;;;;14.95;76.60;101056.06;6065117;28;20480;-66
2023/06/10 00:56:13;;;;;;;8.30;3.15;;;;;;;14.98;77.48;101042.38;6059628;28;20072;-67
2023/06/10 00:59:09;;;;;;;8.05;3.28;;;;;;;14.59;78.48;101041.34;6050609;28;20088;-66
2023/06/10 01:02:04;;;;;;;4.70;2.80;;;;;;;14.44;80.34;101040.28;6050272;28;20100;-66
2023/06/10 01:05:01;;;;;;;7.35;3.60;;;;;;;14.54;81.36;101051.69;6049873;28;20167;-66
2023/06/10 01:08:05;;;;;;;5.68;3.30;;;;;;;14.58;81.43;101048.50;6050102;28;20037;-66
2023/06/10 01:11:02;;;;;;;9.00;3.35;;;;;;;14.28;82.90;101035.72;6037148;28;20092;-66
2023/06/10 01:13:58;;;;;;;9.18;3.20;;;;;;;14.53;83.25;101044.66;6040831;28;20109;-67
2023/06/10 01:16:53;;;;;;;6.68;2.88;;;;;;;14.40;83.95;101052.31;6042546;28;20057;-66
2023/06/10 01:19:59;;;;;;;8.40;2.87;;;;;;;14.23;84.29;101044.22;6049021;28;20033;-66
2023/06/10 01:22:54;;;;;;;7.35;3.13;;;;;;;14.22;86.23;101041.69;6040158;28;20018;-66
2023/06/10 01:25:57;;;;;;;9.13;3.55;;;;;;;14.08;86.63;101043.13;6048431;28;20030;-66
2023/06/10 01:29:02;;;;;;;6.63;3.55;;;;;;;14.00;87.76;101035.09;6049747;28;20415;-67
2023/06/10 01:32:04;;;;;;;8.50;3.95;;;;;;;14.09;87.84;101035.97;6065301;28;20040;-67
2023/06/10 01:35:00;;;;;;;5.88;3.20;;;;;;;14.45;86.26;101041.97;6064346;28;20029;-66
2023/06/10 01:37:56;;;;;;;7.82;3.13;;;;;;;14.37;86.91;101044.63;6031661;28;20425;-66
2023/06/10 01:40:53;;;;;;;6.72;3.40;;;;;;;14.06;86.78;101037.13;6049816;28;20026;-66
2023/06/10 01:43:49;;;;;;;6.72;2.88;;;;;;;14.21;88.32;101053.38;6064049;28;20113;-66
2023/06/10 01:46:44;;;;;;;4.75;2.80;;;;;;;14.12;86.88;101060.50;6049740;28;20025;-67
2023/06/10 01:49:40;;;;;;;12.40;3.53;;;;;;;14.07;88.47;101057.50;6047130;28;20080;-66
2023/06/10 01:52:35;;;;;;;6.65;3.00;;;;;;;13.98;89.14;101055.78;6032219;28;20049;-66
2023/06/10 01:55:30;;;;;;;6.43;3.30;;;;;;;13.92;88.09;101063.56;6048796;28;20042;-66
2023/06/10 01:58:26;;;;;;;7.10;3.70;;;;;;;13.91;90.15;101060.09;6049501;28;20350;-66
2023/06/10 02:01:21;;;;;;;7.82;3.17;;;;;;;13.90;89.65;101053.06;6049550;28;20045;-66
2023/06/10 02:04:17;;;;;;;8.83;3.80;;;;;;;14.04;90.59;101059.63;6043340;28;20026;-66
2023/06/10 02:07:12;;;;;;;7.50;4.07;;;;;;;13.98;89.63;101065.59;6033794;28;20018;-66
2023/06/10 02:10:08;;;;;;;8.80;4.00;;;;;;;14.21;90.73;101064.84;6040268;28;20056;-66
2023/06/10 02:13:03;;;;;;;6.80;4.15;;;;;;;14.03;89.26;101052.63;6049164;28;20018;-66
2023/06/10 02:15:59;;;;;;;8.43;3.70;;;;;;;14.08;89.53;101055.63;6026729;28;20473;-66
2023/06/10 02:18:55;;;;;;;8.02;3.72;;;;;;;13.82;89.72;101063.69;6041715;28;20314;-67
2023/06/10 02:21:50;;;;;;;7.13;3.30;;;;;;;13.85;89.15;101057.19;6045285;28;20039;-66
2023/06/10 02:24:45;;;;;;;9.60;3.58;;;;;;;13.33;91.69;101070.53;6048464;28;20052;-66
2023/06/10 02:27:41;;;;;;;9.00;3.57;;;;;;;13.42;93.16;101084.75;6050296;28;20030;-66
2023/06/10 02:30:40;;;;;;;7.47;3.73;;;;;;;13.24;94.12;101081.25;6053046;28;20287;-65
2023/06/10 02:33:40;;;;;;;8.73;3.72;;;;;;;13.56;94.97;101092.19;6037933;28;20041;-67
2023/06/10 02:36:35;;;;;;;8.68;3.90;;;;;;;13.39;93.47;101079.72;6038653;28;20643;-66
2023/06/10 02:39:31;;;;;;;8.77;3.58;;;;;;;13.07;93.33;101081.13;6048882;28;20045;-66
2023/06/10 02:42:26;;;;;;;8.70;3.37;;;;;;;13.13;93.82;101092.19;6049266;28;20030;-66
2023/06/10 02:45:21;;;;;;;10.50;3.80;;;;;;;13.30;91.96;101088.63;6048298;28;20034;-66
2023/06/10 02:48:16;;;;;;;7.70;3.33;;;;;;;13.13;93.20;101091.16;6046107;28;20350;-67
2023/06/10 02:51:12;;;;;;;8.27;4.00;;;;;;;13.37;93.98;101101.19;6048550;28;20034;-67
2023/06/10 02:54:07;;;;;;;10.10;4.47;;;;;;;13.16;94.76;101078.53;6048122;28;20026;-67
2023/06/10 02:57:02;;;;;;;7.27;3.63;;;;;;;13.70;94.12;101099.59;6048572;28;20045;-67
2023/06/10 02:59:58;;;;;;;6.85;3.60;;;;;;;13.31;92.60;101096.50;6043637;28;20469;-66
2023/06/10 03:02:57;;;;;;;9.93;3.50;;;;;;;13.09;93.83;101094.28;6050042;28;20068;-65
2023/06/10 03:05:52;;;;;;;20.00;4.22;;;;;;;13.10;95.37;101090.63;6052509;28;20040;-66
2023/06/10 03:08:47;;;;;;;13.83;4.07;;;;;;;13.03;95.88;101071.75;6052746;28;20030;-67
2023/06/10 03:11:43;;;;;;;7.37;4.30;;;;;;;13.02;95.54;101095.84;6053212;28;20279;-66
2023/06/10 03:14:38;;;;;;;7.83;3.57;;;;;;;12.90;97.05;101094.41;6039887;28;20034;-66
2023/06/10 03:17:34;;;;;;;7.38;3.60;;;;;;;13.08;96.21;101095.28;6050784;28;20026;-66
2023/06/10 03:20:29;;;;;;;13.63;4.37;;;;;;;12.71;97.34;101090.06;6052788;28;20037;-66
2023/06/10 03:23:25;;;;;;;12.20;4.25;;;;;;;12.86;98.26;101090.38;6047386;28;20269;-66
2023/06/10 03:26:21;;;;;;;8.33;3.87;;;;;;;13.08;96.87;101092.59;6052631;28;20030;-67
2023/06/10 03:29:16;;;;;;;7.75;3.88;;;;;;;12.77;97.20;101121.41;6033552;28;20076;-66
2023/06/10 03:32:12;;;;;;;6.57;3.83;;;;;;;12.41;98.69;101119.66;6050384;28;20046;-66
2023/06/10 03:35:07;;;;;;;7.00;3.83;;;;;;;12.48;100.00;101126.88;6041770;28;20417;-66
2023/06/10 03:38:03;;;;;;;7.72;3.80;;;;;;;12.94;100.00;101128.56;6037993;28;20261;-66
2023/06/10 03:40:58;;;;;;;9.13;4.53;;;;;;;12.72;98.41;101115.69;6050838;28;20030;-66
2023/06/10 03:43:53;;;;;;;10.20;4.30;;;;;;;12.50;99.16;101121.44;6039071;28;20033;-66
2023/06/10 03:46:48;;;;;;;9.53;4.47;;;;;;;12.85;100.00;101129.47;6052076;28;20040;-66
2023/06/10 03:49:44;;;;;;;11.33;4.67;;;;;;;12.72;100.00;101126.31;6052102;28;20457;-66
2023/06/10 03:52:39;;;;;;;9.53;4.30;;;;;;;12.86;99.84;101116.97;6051913;28;20036;-66
2023/06/10 03:55:36;;;;;;;8.95;3.75;;;;;;;12.79;99.48;101092.81;6044258;28;20018;-66
2023/06/10 03:58:31;;;;;;;9.70;4.28;;;;;;;12.80;98.24;101107.78;6016179;28;20415;-66
2023/06/10 04:01:27;;;;;;;11.27;4.13;;;;;;;12.78;98.98;101115.09;6048345;28;20038;-66
2023/06/10 04:04:23;;;;;;;6.43;4.03;;;;;;;13.01;99.49;101124.31;6051299;28;20049;-66
2023/06/10 04:07:20;;;;;;;8.45;3.90;;;;;;;12.91;99.08;101102.22;6039266;28;20030;-66
2023/06/10 04:10:15;;;;;;;8.85;4.20;;;;;;;12.86;99.27;101103.69;6038302;28;20045;-66
2023/06/10 04:13:10;;;;;;;10.85;3.70;;;;;;;12.89;98.90;101108.69;6050552;28;20045;-66
2023/06/10 04:16:06;;;;;;;7.83;4.20;;;;;;;12.96;99.36;101099.94;6038222;28;20037;-66
2023/06/10 04:19:01;;;;;;;12.00;4.50;;;;;;;12.88;99.38;101115.03;6051601;28;20209;-66
2023/06/10 04:21:57;;;;;;;9.57;4.60;;;;;;;13.02;98.69;101109.16;6046807;28;20034;-66
2023/06/10 04:24:52;;;;;;;9.15;5.00;;;;;;;12.99;99.28;101099.66;6045177;28;20632;-66
2023/06/10 04:27:48;;;;;;;9.00;4.18;;;;;;;13.36;98.46;101117.31;6040728;28;20524;-66
2023/06/10 04:30:44;;;;;;;8.25;3.92;;;;;;;14.07;94.58;101118.00;6048409;28;20030;-66
2023/06/10 04:33:40;;;;;;;9.75;4.45;;;;;;;13.65;93.87;101112.56;6044956;28;20358;-66
2023/06/10 04:36:35;;;;;;;11.07;3.90;;;;;;;14.08;93.10;101101.81;6050932;28;20018;-66
2023/06/10 04:39:30;;;;;;;8.17;3.80;;;;;;;14.48;89.54;101111.03;6041862;28;20109;-66
2023/06/10 04:42:26;;;;;;;10.60;4.00;;;;;;;14.18;90.32;101107.03;6042843;28;20056;-66
2023/06/10 04:45:21;;;;;;;7.43;3.87;;;;;;;14.77;89.81;101116.78;6050511;28;20042;-66
2023/06/10 04:48:16;;;;;;;9.13;3.73;;;;;;;15.11;85.77;101116.69;6050678;28;20049;-66
2023/06/10 04:51:11;;;;;;;9.73;4.27;;;;;;;14.34;88.18;101116.97;6050728;28;20457;-66
2023/06/10 04:54:07;;;;;;;8.60;4.20;;;;;;;13.89;91.48;101126.03;6050063;28;20064;-65
2023/06/10 04:57:02;;;;;;;12.63;4.47;;;;;;;13.82;92.48;101109.00;6019712;28;20022;-66
2023/06/10 04:59:58;;;;;;;8.38;4.53;;;;;;;13.96;93.56;101118.25;6050350;28;20026;-66
2023/06/10 05:02:53;;;;;;;8.00;3.92;;;;;;;14.17;91.28;101114.22;6050681;28;20025;-66
2023/06/10 05:05:48;;;;;;;8.57;3.97;;;;;;;14.39;90.65;101104.00;6034592;28;20045;-66
2023/06/10 05:08:44;;;;;;;11.77;3.87;;;;;;;14.90;89.47;101125.16;6035352;28;20034;-67
2023/06/10 05:11:39;;;;;;;11.00;4.20;;;;;;;14.89;87.16;101121.66;6041031;28;20295;-66
2023/06/10 05:14:35;;;;;;;11.02;4.25;;;;;;;14.54;87.56;101105.06;6029026;28;20030;-67
2023/06/10 05:17:30;;;;;;;9.27;3.90;;;;;;;15.01;87.55;101124.00;6048133;28;20026;-67
2023/06/10 05:20:25;;;;;;;9.27;4.27;;;;;;;14.77;89.18;101111.44;6049093;28;20029;-66
2023/06/10 05:23:21;;;;;;;10.30;3.42;;;;;;;14.86;88.59;101111.31;6035423;28;20026;-66
2023/06/10 05:26:17;;;;;;;7.97;3.70;;;;;;;14.94;87.99;101118.50;6050106;28;20033;-67
2023/06/10 05:29:12;;;;;;;7.50;3.25;;;;;;;15.26;85.36;101123.88;6029023;28;20034;-67
2023/06/10 05:32:08;;;;;;;6.93;3.37;;;;;;;15.01;86.30;101132.88;6048356;28;20049;-67
2023/06/10 05:35:04;;;;;;;10.07;3.78;;;;;;;15.13;86.69;101115.53;6049236;28;20465;-67
2023/06/10 05:37:59;;;;;;;9.43;4.40;;;;;;;14.63;86.85;101136.09;6037256;28;20465;-66
2023/06/10 05:40:56;;;;;;;9.80;4.63;;;;;;;14.78;90.05;101140.66;6044637;28;20025;-66
2023/06/10 05:43:52;;;;;;;12.23;3.90;;;;;;;14.33;90.31;101140.16;6036237;28;20026;-67
2023/06/10 05:46:47;;;;;;;7.73;3.87;;;;;;;14.60;91.15;101139.94;6037216;28;20030;-66
2023/06/10 05:49:42;;;;;;;8.77;4.27;;;;;;;14.95;89.73;101130.84;6045572;28;20053;-66
2023/06/10 05:52:40;;;;;;;13.60;3.90;;;;;;;14.59;88.82;101140.09;6046039;28;20309;-66
2023/06/10 05:55:35;;;;;;;10.90;3.35;;;;;;;14.89;89.52;101136.88;6039378;28;20022;-66
2023/06/10 05:58:31;;;;;;;8.63;3.72;;;;;;;14.71;89.18;101133.44;6049740;28;20029;-66
2023/06/10 06:01:26;;;;;;;6.43;3.63;;;;;;;14.79;88.40;101120.97;6047957;28;20080;-65
2023/06/10 06:04:22;;;;;;;8.50;3.93;;;;;;;14.70;89.62;101100.56;6043436;28;20468;-67
2023/06/10 06:07:20;;;;;;;13.07;4.23;;;;;;;15.70;86.02;101128.91;6026294;28;20258;-67
2023/06/10 06:10:17;;;;;;;9.55;3.90;;;;;;;15.88;86.13;101129.56;6008772;28;20022;-67
2023/06/10 06:13:12;;;;;;;10.02;3.80;;;;;;;16.26;83.14;101114.56;6033148;28;20473;-67
2023/06/10 06:16:07;;;;;;;9.10;4.13;;;;;;;15.88;83.50;101113.50;6028596;28;20053;-67
2023/06/10 06:19:03;;;;;;;12.20;4.40;;;;;;;16.62;80.95;101113.09;6030868;28;20037;-67
2023/06/10 06:21:58;;;;;;;7.97;3.80;;;;;;;16.42;81.69;101131.41;6030532;28;20037;-67
2023/06/10 06:24:53;;;;;;;9.67;3.50;;;;;;;17.01;79.13;101105.81;6047886;28;20030;-67
2023/06/10 06:27:49;;;;;;;13.43;3.63;;;;;;;17.63;76.09;101125.31;6028638;28;20769;-67
2023/06/10 06:30:44;;;;;;;12.63;3.60;;;;;;;17.68;75.24;101122.91;6029165;28;20062;-66
2023/06/10 06:33:40;;;;;;;11.68;3.97;;;;;;;16.97;77.31;101119.75;6045298;28;20160;-66
2023/06/10 06:36:35;;;;;;;8.95;4.22;;;;;;;17.81;73.32;101116.91;6038633;28;20478;-66
2023/06/10 06:39:30;;;;;;;9.43;3.53;;;;;;;18.35;72.55;101109.44;6029565;28;20422;-66
2023/06/10 06:42:26;;;;;;;11.57;3.77;;;;;;;18.04;72.03;101122.22;6032641;28;20035;-66
2023/06/10 06:45:21;;;;;;;9.70;3.73;;;;;;;17.72;74.18;101123.38;6034525;28;20041;-66
2023/06/10 06:48:16;;;;;;;8.70;3.50;;;;;;;18.33;72.73;101133.78;6034976;28;20498;-66
2023/06/10 06:51:12;;;;;;;8.43;3.60;;;;;;;18.95;69.60;101127.97;6032099;28;20303;-66
2023/06/10 06:54:07;;;;;;;9.38;3.55;;;;;;;19.01;68.62;101137.97;6050267;28;20030;-66
2023/06/10 06:57:03;;;;;;;13.07;4.00;;;;;;;18.23;71.33;101138.63;6053430;28;20084;-66
2023/06/10 06:59:58;;;;;;;7.72;3.38;;;;;;;18.67;71.59;101133.22;6052869;28;20034;-66
2023/06/10 07:02:54;;;;;;;6.43;3.30;;;;;;;19.31;67.59;101122.53;6053387;28;20053;-66
2023/06/10 07:05:50;;;;;;;10.07;3.42;;;;;;;19.56;69.07;101138.13;6046896;28;20331;-66
2023/06/10 07:08:45;;;;;;;10.67;3.27;;;;;;;19.35;67.18;101130.03;6038827;28;20033;-65
2023/06/10 07:11:40;;;;;;;8.07;3.60;;;;;;;19.54;66.20;101128.59;6053451;28;20269;-67
2023/06/10 07:14:36;;;;;;;9.47;4.07;;;;;;;18.65;71.69;101132.56;6019473;28;20037;-67
2023/06/10 07:17:31;;;;;;;8.93;3.83;;;;;;;19.45;67.74;101133.28;6040929;28;20038;-67
2023/06/10 07:20:26;;;;;;;5.67;3.27;;;;;;;19.53;67.77;101129.59;6039030;28;20611;-67
2023/06/10 07:23:22;;;;;;;8.60;3.50;;;;;;;19.38;68.30;101134.22;6029945;28;20040;-66
2023/06/10 07:26:17;;;;;;;10.67;3.40;;;;;;;20.04;65.91;101120.25;6039689;28;20026;-66
2023/06/10 07:29:12;;;;;;;9.63;3.93;;;;;;;19.84;66.30;101123.84;6042584;28;20288;-67
2023/06/10 07:32:08;;;;;;;7.45;3.45;;;;;;;20.17;65.33;101125.72;6028109;28;20029;-67
2023/06/10 07:35:05;;;;;;;8.77;3.85;;;;;;;20.33;65.03;101124.59;6051789;28;20488;-67
2023/06/10 07:38:00;;;;;;;10.30;3.40;;;;;;;20.54;65.11;101137.16;6050902;28;20454;-67
2023/06/10 07:40:56;;;;;;;8.03;3.23;;;;;;;21.38;61.91;101134.91;6039547;28;20030;-66
2023/06/10 07:43:55;;;;;;;7.80;3.60;;;;;;;20.53;64.05;101135.47;6047854;28;20030;-66
2023/06/10 07:46:51;;;;;;;10.95;4.28;;;;;;;20.65;63.44;101141.97;6051978;28;20080;-67
2023/06/10 07:49:46;;;;;;;9.63;3.80;;;;;;;21.03;60.88;101121.56;6051686;28;20033;-67
2023/06/10 07:52:41;;;;;;;8.03;3.90;;;;;;;20.72;62.21;101134.72;6052029;28;20064;-66
2023/06/10 07:55:37;;;;;;;8.02;3.50;;;;;;;20.81;63.05;101128.13;6047327;28;20065;-67
2023/06/10 07:58:32;;;;;;;9.93;3.87;;;;;;;20.57;64.05;101129.47;6051912;28;20052;-67
2023/06/10 08:01:27;;;;;;;10.77;3.50;;;;;;;21.44;60.98;101121.44;6051506;28;20029;-67
2023/06/10 08:04:22;;;;;;;10.40;3.90;;;;;;;21.38;61.07;101119.56;6050851;28;20036;-67
2023/06/10 08:07:18;;;;;;;8.70;4.07;;;;;;;21.13;61.26;101132.81;6051755;28;20265;-67
2023/06/10 08:10:14;;;;;;;10.68;4.28;;;;;;;21.05;62.32;101135.66;6051646;28;20030;-66
2023/06/10 08:13:09;;;;;;;6.78;4.03;;;;;;;21.28;62.15;101136.13;6047922;28;20030;-67
2023/06/10 08:16:05;;;;;;;7.32;4.00;;;;;;;20.94;63.32;101117.38;6037621;28;20038;-67
2023/06/10 08:19:00;;;;;;;11.80;4.10;;;;;;;20.85;63.76;101140.16;6051524;28;20495;-67
2023/06/10 08:21:55;;;;;;;8.13;3.67;;;;;;;21.11;63.08;101124.09;6031130;28;20310;-67
2023/06/10 08:24:51;;;;;;;10.40;4.37;;;;;;;21.72;60.99;101132.00;6042083;28;20045;-67
2023/06/10 08:27:46;;;;;;;10.20;4.22;;;;;;;21.83;59.76;101123.28;6050705;28;20045;-67
2023/06/10 08:30:41;;;;;;;8.40;3.53;;;;;;;21.93;60.86;101121.03;6041598;28;20065;-67
2023/06/10 08:33:36;;;;;;;8.70;4.40;;;;;;;20.97;62.71;101132.31;6043308;28;20033;-67
2023/06/10 08:36:32;;;;;;;12.83;4.60;;;;;;;21.11;63.17;101118.69;6051298;28;20030;-67
2023/06/10 08:39:27;;;;;;;10.27;4.17;;;;;;;21.43;63.80;101140.53;6051328;28;20079;-67
2023/06/10 08:42:28;;;;;;;10.20;4.10;;;;;;;22.23;60.52;101114.09;6051082;28;20025;-67
2023/06/10 08:45:23;;;;;;;11.23;4.50;;;;;;;22.38;59.03;101133.59;6061108;28;20030;-67
2023/06/10 08:48:19;;;;;;;10.98;3.55;;;;;;;22.10;60.98;101130.34;6050890;28;20461;-67
2023/06/10 08:51:16;;;;;;;10.50;4.13;;;;;;;22.06;60.83;101120.16;6051097;28;20033;-66
2023/06/10 08:54:20;;;;;;;8.90;4.07;;;;;;;22.28;59.70;101127.81;6047964;28;20034;-67
2023/06/10 08:57:17;;;;;;;7.88;3.92;;;;;;;22.44;59.56;101130.06;6050630;28;20030;-67
2023/06/10 09:00:13;;;;;;;7.93;3.72;;;;;;;23.11;57.69;101096.22;6066097;28;20358;-67
2023/06/10 09:03:09;;;;;;;7.78;4.05;;;;;;;22.76;58.88;101120.16;6020693;28;20066;-67
2023/06/10 09:06:05;;;;;;;7.32;4.35;;;;;;;22.53;58.84;101114.41;6035603;28;20041;-67
2023/06/10 09:09:02;;;;;;;11.27;4.20;;;;;;;22.37;60.10;101110.31;6044299;28;20026;-67
2023/06/10 09:11:58;;;;;;;9.45;3.70;;;;;;;22.64;59.56;101107.53;6050757;28;20075;-67
2023/06/10 09:14:53;;;;;;;11.77;4.30;;;;;;;22.66;59.33;101091.94;6037122;28;20401;-68
2023/06/10 09:17:48;;;;;;;7.97;3.93;;;;;;;23.35;57.78;101108.13;6034031;28;20054;-67
2023/06/10 09:20:44;;;;;;;9.40;3.80;;;;;;;23.36;58.39;101105.22;6038935;28;20022;-67
2023/06/10 09:23:40;;;;;;;9.25;4.03;;;;;;;23.23;57.67;101101.78;6038926;28;20381;-68
2023/06/10 09:26:35;;;;;;;8.30;4.15;;;;;;;23.72;57.00;101114.53;6065424;28;20064;-68
2023/06/10 09:29:30;;;;;;;8.73;3.80;;;;;;;23.38;57.33;101103.13;6050034;28;20101;-68
2023/06/10 09:32:26;;;;;;;10.20;4.22;;;;;;;23.66;56.42;101100.84;6049873;28;20034;-68
2023/06/10 09:35:23;;;;;;;10.65;3.88;;;;;;;22.96;58.40;101099.25;6029135;28;20121;-67
2023/06/10 09:38:22;;;;;;;9.45;4.65;;;;;;;23.77;56.88;101098.44;6049664;28;20026;-67
2023/06/10 09:41:17;;;;;;;11.13;4.60;;;;;;;23.79;56.19;101109.88;6049901;28;20373;-67
2023/06/10 09:44:19;;;;;;;11.83;4.07;;;;;;;24.57;54.76;101098.19;6049330;28;20026;-67
2023/06/10 09:47:19;;;;;;;8.95;3.60;;;;;;;24.69;53.65;101096.38;6049603;28;20022;-67
2023/06/10 09:50:15;;;;;;;7.00;4.20;;;;;;;24.81;53.20;101096.47;6034721;28;20481;-67
2023/06/10 09:53:11;;;;;;;7.17;4.20;;;;;;;24.85;52.78;101095.75;6032292;28;20033;-67
2023/06/10 09:56:06;;;;;;;9.52;4.00;;;;;;;24.94;53.08;101098.16;6048843;28;20018;-68
2023/06/10 09:59:03;;;;;;;8.05;4.40;;;;;;;24.82;52.97;101098.09;6037870;28;20424;-68
2023/06/10 10:02:00;;;;;;;10.40;4.03;;;;;;;25.45;52.29;101090.25;6038296;28;20076;-68
2023/06/10 10:05:04;;;;;;;7.85;3.90;;;;;;;25.03;52.71;101105.72;6048747;28;20038;-68
2023/06/10 10:07:59;;;;;;;11.13;4.38;;;;;;;25.52;52.17;101101.84;6034861;28;20142;-68
2023/06/10 10:10:56;;;;;;;8.20;4.27;;;;;;;25.38;51.83;101084.09;6052271;28;20398;-68
2023/06/10 10:13:52;;;;;;;7.45;4.50;;;;;;;25.10;52.25;101105.63;6048931;28;20443;-68
2023/06/10 10:16:49;;;;;;;10.07;4.22;;;;;;;24.89;52.68;101089.88;6048494;28;20032;-67
2023/06/10 10:19:53;;;;;;;11.52;4.28;;;;;;;24.75;53.04;101091.91;6054066;28;20025;-67
2023/06/10 10:22:49;;;;;;;7.47;3.92;;;;;;;24.99;52.85;101088.25;6052040;28;20466;-68
2023/06/10 10:25:50;;;;;;;8.70;4.40;;;;;;;25.24;51.79;101059.06;6051099;28;20034;-68
2023/06/10 10:29:07;;;;;;;6.80;4.15;;;;;;;25.75;51.68;101082.84;6069282;28;20450;-68
2023/06/10 10:32:03;;;;;;;10.27;4.50;;;;;;;25.62;50.62;101063.25;6054236;28;20053;-68
2023/06/10 10:35:05;;;;;;;13.73;4.90;;;;;;;26.03;49.88;101066.66;6068480;28;20417;-69
2023/06/10 10:38:02;;;;;;;8.05;4.20;;;;;;;25.64;50.67;101075.53;6053491;28;20026;-67
2023/06/10 10:41:00;;;;;;;9.70;4.57;;;;;;;26.19;48.74;101069.72;6036313;28;20037;-68
2023/06/10 10:43:56;;;;;;;8.27;4.20;;;;;;;26.37;48.76;101066.81;6053452;28;20026;-68
2023/06/10 10:46:51;;;;;;;8.20;4.28;;;;;;;26.86;47.95;101074.34;6032019;28;20103;-68
2023/06/10 10:49:48;;;;;;;7.77;4.40;;;;;;;26.98;47.69;101061.53;6050280;28;20030;-68
2023/06/10 10:52:57;;;;;;;12.27;5.60;;;;;;;26.18;46.62;101068.88;6032897;28;20634;-68
2023/06/10 10:56:12;;;;;;;7.97;4.43;;;;;;;26.63;48.43;101066.28;6030029;28;20038;-68
2023/06/10 10:59:09;;;;;;;7.85;4.60;;;;;;;26.38;46.69;101063.03;6048435;28;20087;-68
2023/06/10 11:02:04;;;;;;;11.88;4.90;;;;;;;26.63;46.45;101065.44;6037455;28;20377;-68
2023/06/10 11:05:00;;;;;;;6.53;4.55;;;;;;;26.96;45.43;101052.75;6041965;28;20034;-68
2023/06/10 11:07:55;;;;;;;10.43;4.63;;;;;;;27.17;45.56;101056.66;6042218;28;20053;-68
2023/06/10 11:10:54;;;;;;;9.88;4.90;;;;;;;27.19;44.51;101055.34;6032401;28;20112;-68
2023/06/10 11:14:06;;;;;;;7.72;4.43;;;;;;;27.03;46.00;101055.34;6023281;28;20029;-68
2023/06/10 11:17:18;;;;;;;10.65;5.03;;;;;;;27.05;44.21;101054.00;6034878;28;20630;-68
2023/06/10 11:20:43;;;;;;;7.00;4.53;;;;;;;27.51;43.39;101052.88;6023051;28;20105;-69
2023/06/10 11:23:40;;;;;;;7.78;4.78;;;;;;;27.45;44.16;101031.28;6020664;28;20029;-67
2023/06/10 11:26:35;;;;;;;10.93;4.70;;;;;;;27.48;43.63;101037.03;6033924;28;20128;-68
2023/06/10 11:29:30;;;;;;;10.00;4.43;;;;;;;27.94;42.81;101034.97;6044714;28;20462;-68
2023/06/10 11:32:31;;;;;;;7.60;4.87;;;;;;;27.74;43.23;101046.44;6025926;28;20591;-68
2023/06/10 11:35:27;;;;;;;8.65;4.63;;;;;;;27.90;43.71;101039.28;6042597;28;20355;-68
2023/06/10 11:38:22;;;;;;;6.70;4.30;;;;;;;28.06;43.47;101033.81;6052444;28;20033;-68
2023/06/10 11:41:17;;;;;;;8.20;4.50;;;;;;;28.48;42.12;101025.84;6030592;28;20033;-68
2023/06/10 11:44:14;;;;;;;7.80;4.80;;;;;;;28.63;41.31;101039.69;6037667;28;20042;-67
2023/06/10 11:47:09;;;;;;;6.32;4.55;;;;;;;28.22;41.10;101038.38;6033912;28;20269;-67
2023/06/10 11:50:05;;;;;;;8.20;4.43;;;;;;;28.17;41.14;101026.56;6037891;28;20053;-67
2023/06/10 11:53:00;;;;;;;8.07;4.57;;;;;;;27.92;42.71;101029.75;6034523;28;20030;-66
2023/06/10 11:55:55;;;;;;;8.50;4.90;;;;;;;27.75;43.22;101015.34;6009906;28;20117;-67
2023/06/10 11:58:57;;;;;;;6.13;4.47;;;;;;;28.35;41.79;101034.41;6014457;28;20035;-67
2023/06/10 12:01:52;;;;;;;10.43;5.13;;;;;;;28.23;41.92;101034.56;6036701;28;20057;-67
2023/06/10 12:04:47;;;;;;;9.00;5.20;;;;;;;28.09;41.48;101027.84;6041224;28;20058;-67
2023/06/10 12:07:43;;;;;;;8.17;4.87;;;;;;;28.48;40.17;101033.22;6025109;28;20033;-68
2023/06/10 12:10:40;;;;;;;8.00;5.07;;;;;;;28.13;40.80;101034.44;6013458;28;20029;-67
2023/06/10 12:13:35;;;;;;;10.40;5.38;;;;;;;28.34;41.21;101025.44;6021888;28;20437;-68
2023/06/10 12:16:31;;;;;;;7.77;5.10;;;;;;;27.82;42.43;101031.53;6025820;28;20033;-67
2023/06/10 12:19:27;;;;;;;10.15;4.90;;;;;;;27.70;42.24;101034.34;6020166;28;20023;-67
2023/06/10 12:22:23;;;;;;;10.27;5.57;;;;;;;27.93;41.90;101022.41;6010081;28;20035;-67
2023/06/10 12:25:25;;;;;;;11.57;5.80;;;;;;;27.99;42.26;101024.97;6028294;28;20321;-67
2023/06/10 12:28:22;;;;;;;7.88;5.20;;;;;;;28.52;41.29;101026.97;6041967;28;20120;-67
2023/06/10 12:31:17;;;;;;;13.80;7.32;;;;;;;28.34;42.23;101021.88;6025139;28;20080;-68
2023/06/10 12:34:12;;;;;;;9.73;5.33;;;;;;;27.93;42.56;101027.88;6030770;28;20454;-67
2023/06/10 12:37:16;;;;;;;11.03;6.27;;;;;;;28.21;42.25;101020.34;6030134;28;20281;-67
2023/06/10 12:40:11;;;;;;;8.77;5.22;;;;;;;28.93;40.72;101017.31;6020558;28;20038;-67
2023/06/10 12:43:07;;;;;;;8.95;5.20;;;;;;;28.85;40.43;101015.88;6012402;28;20073;-67
2023/06/10 12:46:09;;;;;;;8.63;5.40;;;;;;;29.00;40.27;100995.25;6020729;28;20031;-66
2023/06/10 12:49:05;;;;;;;9.35;6.00;;;;;;;28.99;40.07;100997.16;6019677;28;20676;-67
2023/06/10 12:52:00;;;;;;;9.37;5.13;;;;;;;29.05;40.52;101004.31;6034185;28;20030;-67
2023/06/10 12:54:55;;;;;;;7.63;5.13;;;;;;;28.67;40.74;100996.31;6019956;28;20073;-67
2023/06/10 12:57:51;;;;;;;8.77;5.20;;;;;;;28.89;40.46;100999.81;6018300;28;20290;-67
2023/06/10 13:00:48;;;;;;;7.18;5.03;;;;;;;28.97;40.01;100998.50;6015585;28;20035;-67
2023/06/10 13:03:43;;;;;;;10.13;5.47;;;;;;;29.11;40.24;100997.00;6022588;28;20030;-67
2023/06/10 13:06:39;;;;;;;7.97;5.27;;;;;;;29.85;39.33;100986.84;6017754;28;20484;-67
2023/06/10 13:09:34;;;;;;;8.90;5.18;;;;;;;30.41;38.34;100985.97;6033119;28;20772;-67
2023/06/10 13:12:30;;;;;;;8.63;5.23;;;;;;;29.93;38.30;100961.72;6038967;28;20036;-68
2023/06/10 13:15:26;;;;;;;9.30;5.40;;;;;;;30.04;38.03;100977.91;6014130;28;20022;-67
2023/06/10 13:18:21;;;;;;;7.60;5.20;;;;;;;29.86;38.52;100993.97;6026486;28;20114;-67
2023/06/10 13:21:17;;;;;;;8.13;5.43;;;;;;;29.78;38.52;100973.41;6019576;28;20030;-67
2023/06/10 13:24:13;;;;;;;9.18;5.10;;;;;;;30.13;37.19;100963.69;6018019;28;20702;-67
2023/06/10 13:27:09;;;;;;;10.70;6.07;;;;;;;30.14;37.90;100977.09;6033279;28;20038;-67
2023/06/10 13:30:08;;;;;;;8.18;5.55;;;;;;;29.81;38.58;100964.69;6044306;28;20034;-67
2023/06/10 13:33:04;;;;;;;8.50;5.18;;;;;;;30.23;37.82;100953.59;6036343;28;20616;-69
2023/06/10 13:35:59;;;;;;;7.53;5.03;;;;;;;30.53;36.29;100953.69;6018895;28;20069;-67